Tomkins Cove, New York
Current Conditions -  °F | °C
As of 1:45 PM on Monday 24 Nov 2014 (Local Time) from KSWF Reporting Station
Broken Clouds Broken Clouds  
Wind Chill: 21°   Ceiling: 4000
Heat Index: 21°   Visibility: 15mi
Dew Point: 15°   Wind: 17mph
Humidity: 68%   Direction: 220°SW
Pressure: 29.55"   Gusts: 29mph
Location:  41.26°N, 73.98°W
Report Text: KSWF 241845Z 22015G25KT 15SM SCT030 BKN040 21/15 A2955
Loading
Personal Weather Stations






























Interactive Weather Map New forecast layout! Learn more

10-Day Weather Forecast

Advertisements
Track Severe Weather on mobile